createdAt,value
2024-04-10T00:01:10.426Z,10.91
2024-04-10T00:03:38.377Z,10.91
2024-04-10T00:06:12.300Z,10.93
2024-04-10T00:08:40.005Z,10.92
2024-04-10T00:11:10.219Z,10.91
2024-04-10T00:13:38.376Z,10.93
2024-04-10T00:16:11.894Z,10.93
2024-04-10T00:18:40.041Z,10.93
2024-04-10T00:21:10.213Z,10.90
2024-04-10T00:23:38.129Z,10.90
2024-04-10T00:26:08.427Z,10.90
2024-04-10T00:28:35.865Z,10.90
2024-04-10T00:31:09.197Z,10.89
2024-04-10T00:33:40.929Z,10.92
2024-04-10T00:36:11.724Z,10.92
2024-04-10T00:38:39.196Z,10.91
2024-04-10T00:41:10.528Z,10.92
2024-04-10T00:43:38.110Z,10.85
2024-04-10T00:46:16.023Z,10.87
2024-04-10T00:48:44.506Z,10.82
2024-04-10T00:51:26.464Z,10.86
2024-04-10T00:53:55.450Z,10.87
2024-04-10T00:56:26.369Z,10.82
2024-04-10T00:58:56.542Z,10.88
2024-04-10T01:01:26.709Z,10.88
2024-04-10T01:03:54.469Z,10.88
2024-04-10T01:06:32.780Z,10.90
2024-04-10T01:09:00.413Z,10.90
2024-04-10T01:11:30.583Z,10.91
2024-04-10T01:13:58.145Z,10.90
2024-04-10T01:16:28.316Z,10.91
2024-04-10T01:18:55.729Z,10.92
2024-04-10T01:21:25.688Z,10.93
2024-04-10T01:23:53.122Z,10.94
2024-04-10T01:26:23.196Z,10.94
2024-04-10T01:28:50.657Z,10.96
2024-04-10T01:31:20.632Z,10.98
2024-04-10T01:33:48.082Z,10.99
2024-04-10T01:36:18.657Z,10.98
2024-04-10T01:38:47.333Z,10.98
2024-04-10T01:41:17.498Z,10.97
2024-04-10T01:43:44.970Z,10.97
2024-04-10T01:46:15.139Z,10.96
2024-04-10T01:48:42.706Z,10.97
2024-04-10T01:51:13.088Z,10.96
2024-04-10T01:53:40.651Z,10.94
2024-04-10T01:56:10.792Z,10.93
2024-04-10T01:58:38.207Z,10.92
2024-04-10T02:01:08.267Z,10.89
2024-04-10T02:03:35.893Z,10.93
2024-04-10T02:06:06.154Z,10.93
2024-04-10T02:08:33.686Z,10.93
2024-04-10T02:11:21.449Z,10.93
2024-04-10T02:13:49.062Z,10.93
2024-04-10T02:16:19.421Z,10.94
2024-04-10T02:18:46.925Z,10.95
2024-04-10T02:21:18.283Z,10.95
2024-04-10T02:23:45.710Z,10.95
2024-04-10T02:26:17.099Z,10.89
2024-04-10T02:28:44.892Z,10.89
2024-04-10T02:31:14.909Z,10.88
2024-04-10T02:33:42.591Z,10.86
2024-04-10T02:36:13.161Z,10.81
2024-04-10T02:38:41.206Z,10.85
2024-04-10T02:41:11.202Z,10.86
2024-04-10T02:43:38.684Z,10.88
2024-04-10T02:46:09.870Z,10.84
2024-04-10T02:48:38.037Z,10.86
2024-04-10T02:51:08.463Z,10.87
2024-04-10T02:53:36.076Z,10.88
2024-04-10T02:56:06.402Z,10.84
2024-04-10T02:58:33.860Z,10.83
2024-04-10T03:01:04.495Z,10.84
2024-04-10T03:03:32.082Z,10.86
2024-04-10T03:06:06.494Z,10.89
2024-04-10T03:08:35.141Z,10.87
2024-04-10T03:11:06.463Z,10.88
2024-04-10T03:13:34.288Z,10.88
2024-04-10T03:16:04.301Z,10.86
2024-04-10T03:18:31.977Z,10.85
2024-04-10T03:21:01.844Z,10.84
2024-04-10T03:23:29.515Z,10.84
2024-04-10T03:26:07.898Z,10.84
2024-04-10T03:28:35.682Z,10.81
2024-04-10T03:31:09.059Z,10.82
2024-04-10T03:33:37.405Z,10.81
2024-04-10T03:36:08.125Z,10.79
2024-04-10T03:38:35.784Z,10.77
2024-04-10T03:41:05.836Z,10.75
2024-04-10T03:43:35.784Z,10.78
2024-04-10T03:46:07.699Z,10.78
2024-04-10T03:48:37.939Z,10.79
2024-04-10T03:51:08.292Z,10.81
2024-04-10T03:53:38.496Z,10.79
2024-04-10T03:56:05.832Z,10.78
2024-04-10T03:58:35.851Z,10.77
2024-04-10T04:01:03.416Z,10.80
2024-04-10T04:03:35.150Z,10.81
2024-04-10T04:06:02.796Z,10.83
2024-04-10T04:08:33.119Z,10.83
2024-04-10T04:11:00.776Z,10.84
2024-04-10T04:13:30.948Z,10.84
2024-04-10T04:15:58.585Z,10.84
2024-04-10T04:18:28.658Z,10.86
2024-04-10T04:20:56.061Z,10.86
2024-04-10T04:23:26.135Z,10.81
2024-04-10T04:25:53.541Z,10.81
2024-04-10T04:28:23.578Z,10.80
2024-04-10T04:30:51.442Z,10.83
2024-04-10T04:33:22.074Z,10.81
2024-04-10T04:35:49.833Z,10.79
2024-04-10T04:38:19.885Z,10.77
2024-04-10T04:40:47.388Z,10.77
2024-04-10T04:43:17.341Z,10.80
2024-04-10T04:45:44.771Z,10.80
2024-04-10T04:48:15.224Z,10.78
2024-04-10T04:50:43.582Z,10.77
2024-04-10T04:53:14.250Z,10.77
2024-04-10T04:55:43.475Z,10.75
2024-04-10T04:58:14.556Z,10.78
2024-04-10T05:00:42.196Z,10.76
2024-04-10T05:03:33.757Z,10.78
2024-04-10T05:06:04.946Z,10.78
2024-04-10T05:08:34.932Z,10.80
2024-04-10T05:11:11.293Z,10.82
2024-04-10T05:13:40.590Z,10.88
2024-04-10T05:16:12.085Z,10.88
2024-04-10T05:18:39.590Z,10.88
2024-04-10T05:21:09.631Z,10.87
2024-04-10T05:23:37.049Z,10.86
2024-04-10T05:26:09.771Z,10.78
2024-04-10T05:28:37.183Z,10.81
2024-04-10T05:31:11.807Z,10.81
2024-04-10T05:33:39.650Z,10.86
2024-04-10T05:36:10.684Z,10.86
2024-04-10T05:38:40.930Z,10.85
2024-04-10T05:41:08.445Z,10.88
2024-04-10T05:43:38.426Z,10.88
2024-04-10T05:46:05.875Z,10.93
2024-04-10T05:48:36.086Z,10.97
2024-04-10T05:51:03.670Z,11.01
2024-04-10T05:53:34.978Z,11.02
2024-04-10T05:56:05.577Z,11.04
2024-04-10T05:58:38.169Z,11.03
2024-04-10T06:01:09.701Z,11.03
2024-04-10T06:03:40.809Z,11.08
2024-04-10T06:06:14.266Z,11.11
2024-04-10T06:08:44.955Z,11.11
2024-04-10T06:11:13.040Z,11.20
2024-04-10T06:13:43.181Z,11.23
2024-04-10T06:16:10.673Z,11.24
2024-04-10T06:18:40.872Z,11.32
2024-04-10T06:21:08.869Z,11.39
2024-04-10T06:23:39.430Z,11.38
2024-04-10T06:26:06.992Z,11.45
2024-04-10T06:28:37.060Z,11.48
2024-04-10T06:31:08.179Z,11.52
2024-04-10T06:33:38.403Z,11.49
2024-04-10T06:36:06.186Z,11.50
2024-04-10T06:38:38.406Z,11.52
2024-04-10T06:41:07.331Z,11.58
2024-04-10T06:43:37.448Z,11.59
2024-04-10T06:46:09.298Z,11.59
2024-04-10T06:48:40.806Z,11.61
2024-04-10T06:51:08.486Z,11.67
2024-04-10T06:53:38.772Z,11.71
2024-04-10T06:56:08.063Z,11.76
2024-04-10T06:58:38.447Z,11.87
2024-04-10T07:01:10.629Z,11.98
2024-04-10T07:03:42.769Z,12.04
2024-04-10T07:06:17.518Z,12.14
2024-04-10T07:08:51.260Z,12.23
2024-04-10T07:11:22.487Z,12.23
2024-04-10T07:13:58.388Z,12.06
2024-04-10T07:16:29.008Z,12.26
2024-04-10T07:19:00.434Z,12.42
2024-04-10T07:21:28.155Z,12.48
2024-04-10T07:24:00.747Z,12.61
2024-04-10T07:26:29.890Z,12.83
2024-04-10T07:29:01.269Z,12.90
2024-04-10T07:31:33.097Z,13.02
2024-04-10T07:34:04.940Z,13.14
2024-04-10T07:36:36.773Z,13.18
2024-04-10T07:39:09.931Z,13.39
2024-04-10T07:41:40.617Z,13.27
2024-04-10T07:44:11.049Z,13.37
2024-04-10T07:46:38.478Z,13.33
2024-04-10T07:49:11.352Z,13.18
2024-04-10T07:51:42.380Z,13.22
2024-04-10T07:54:09.828Z,13.23
2024-04-10T07:56:39.872Z,13.26
2024-04-10T07:59:07.887Z,13.32
2024-04-10T08:01:37.932Z,13.23
2024-04-10T08:04:08.235Z,13.31
2024-04-10T08:06:38.985Z,13.28
2024-04-10T08:09:06.497Z,13.29
2024-04-10T08:11:36.519Z,13.12
2024-04-10T08:14:04.601Z,13.21
2024-04-10T08:16:34.763Z,13.31
2024-04-10T08:19:03.736Z,13.41
2024-04-10T08:21:37.570Z,13.75
2024-04-10T08:24:05.279Z,13.96
2024-04-10T08:26:35.526Z,14.12
2024-04-10T08:29:04.497Z,14.21
2024-04-10T08:31:34.762Z,14.23
2024-04-10T08:36:42.110Z,14.15
2024-04-10T08:39:09.676Z,14.14
2024-04-10T08:41:41.938Z,14.06
2024-04-10T08:44:09.447Z,14.19
2024-04-10T08:46:40.407Z,14.25
2024-04-10T08:49:10.373Z,14.25
2024-04-10T08:51:40.556Z,14.19
2024-04-10T08:54:09.056Z,14.27
2024-04-10T08:56:39.392Z,14.31
2024-04-10T08:59:06.861Z,14.31
2024-04-10T09:01:38.877Z,14.42
2024-04-10T09:04:10.312Z,14.40
2024-04-10T09:06:41.450Z,14.38
2024-04-10T09:09:10.223Z,14.45
2024-04-10T09:11:41.747Z,14.50
2024-04-10T09:14:13.053Z,14.66
2024-04-10T09:16:43.855Z,14.71
2024-04-10T09:19:17.045Z,14.78
2024-04-10T09:21:58.829Z,14.71
2024-04-10T09:24:27.702Z,14.65
2024-04-10T09:26:58.284Z,14.66
2024-04-10T09:29:30.189Z,14.70
2024-04-10T09:32:06.671Z,14.74
2024-04-10T09:34:36.047Z,14.77
2024-04-10T09:37:06.854Z,14.64
2024-04-10T09:39:34.250Z,14.68
2024-04-10T09:42:04.835Z,14.59
2024-04-10T09:44:34.001Z,14.79
2024-04-10T09:47:04.762Z,14.69
2024-04-10T09:49:50.637Z,14.74
2024-04-10T09:52:20.775Z,14.86
2024-04-10T09:54:49.635Z,14.80
2024-04-10T09:57:19.814Z,14.74
2024-04-10T09:59:49.327Z,14.63
2024-04-10T10:02:21.621Z,14.46
2024-04-10T10:04:50.052Z,14.36
2024-04-10T10:07:28.905Z,14.52
2024-04-10T10:10:09.334Z,14.71
2024-04-10T10:12:39.512Z,14.78
2024-04-10T10:15:11.491Z,14.76
2024-04-10T10:17:53.578Z,14.80
2024-04-10T10:20:27.983Z,14.93
2024-04-10T10:23:10.486Z,15.04
2024-04-10T10:25:40.641Z,14.97
2024-04-10T10:28:14.251Z,15.03
2024-04-10T10:30:44.699Z,14.85
2024-04-10T10:33:17.130Z,14.82
2024-04-10T10:35:44.808Z,14.82
2024-04-10T10:38:14.917Z,14.95
2024-04-10T10:40:42.441Z,14.95
2024-04-10T10:43:13.130Z,14.93
2024-04-10T10:45:40.689Z,14.87
2024-04-10T10:48:10.910Z,14.93
2024-04-10T10:50:38.411Z,14.97
2024-04-10T10:53:13.203Z,14.95
2024-04-10T10:55:58.119Z,14.98
2024-04-10T10:58:28.887Z,15.01
2024-04-10T11:00:56.428Z,15.10
2024-04-10T11:03:30.296Z,15.05
2024-04-10T11:06:11.974Z,15.04
2024-04-10T11:08:42.590Z,15.00
2024-04-10T11:11:16.167Z,15.03
2024-04-10T11:13:55.032Z,15.00
2024-04-10T11:16:30.485Z,15.06
2024-04-10T11:19:00.151Z,15.13
2024-04-10T11:21:27.688Z,15.10
2024-04-10T11:23:57.889Z,15.11
2024-04-10T11:26:25.898Z,15.14
2024-04-10T11:29:00.264Z,15.07
2024-04-10T11:31:27.652Z,15.17
2024-04-10T11:33:58.090Z,15.30
2024-04-10T11:36:25.873Z,15.34
2024-04-10T11:38:56.172Z,15.27
2024-04-10T11:41:24.565Z,15.25
2024-04-10T11:43:54.663Z,15.13
2024-04-10T11:46:22.075Z,15.22
2024-04-10T11:48:52.176Z,15.23
2024-04-10T11:51:19.617Z,15.14
2024-04-10T11:53:49.423Z,14.95
2024-04-10T11:56:16.954Z,14.85
2024-04-10T11:58:47.093Z,14.70
2024-04-10T12:01:15.070Z,14.73
2024-04-10T12:03:45.188Z,14.67
2024-04-10T12:06:12.902Z,14.72
2024-04-10T12:08:43.015Z,14.74
2024-04-10T12:11:10.563Z,14.89
2024-04-10T12:13:42.134Z,14.92
2024-04-10T12:16:09.890Z,15.02
2024-04-10T12:18:40.044Z,14.80
2024-04-10T12:21:09.675Z,14.90
2024-04-10T12:23:39.987Z,14.77
2024-04-10T12:26:08.968Z,14.81
2024-04-10T12:28:39.206Z,14.84
2024-04-10T12:31:06.663Z,14.80
2024-04-10T12:33:38.703Z,14.93
2024-04-10T12:36:24.930Z,14.99
2024-04-10T12:38:55.089Z,15.00
2024-04-10T12:41:25.157Z,15.05
2024-04-10T12:43:56.311Z,15.10
2024-04-10T12:46:28.426Z,15.14
2024-04-10T12:48:58.864Z,15.07
2024-04-10T12:51:26.374Z,15.12
2024-04-10T12:53:56.553Z,15.23
2024-04-10T12:56:24.705Z,15.37
2024-04-10T12:58:54.751Z,15.37
2024-04-10T13:01:23.514Z,15.48
2024-04-10T13:03:55.990Z,15.48
2024-04-10T13:06:25.529Z,15.38
2024-04-10T13:08:56.158Z,15.39
2024-04-10T13:11:23.748Z,15.42
2024-04-10T13:13:53.832Z,15.37
2024-04-10T13:16:21.480Z,15.36
2024-04-10T13:18:55.756Z,15.39
2024-04-10T13:21:23.223Z,15.30
2024-04-10T13:23:54.084Z,15.21
2024-04-10T13:26:21.563Z,15.14
2024-04-10T13:28:53.339Z,15.04
2024-04-10T13:31:23.131Z,14.89
2024-04-10T13:33:56.773Z,14.85
2024-04-10T13:36:24.554Z,14.84
2024-04-10T13:38:55.884Z,14.83
2024-04-10T13:41:25.126Z,14.87
2024-04-10T13:43:56.991Z,14.80
2024-04-10T13:46:24.732Z,14.85
2024-04-10T13:48:55.819Z,14.98
2024-04-10T13:51:25.476Z,15.05
2024-04-10T13:53:56.719Z,15.16
2024-04-10T13:56:24.785Z,15.23
2024-04-10T13:58:54.932Z,15.24
2024-04-10T14:01:23.911Z,15.33
2024-04-10T14:03:57.023Z,15.42
2024-04-10T14:06:26.500Z,15.39
2024-04-10T14:08:58.117Z,15.42
2024-04-10T14:11:26.350Z,15.38
2024-04-10T14:13:56.700Z,15.40
2024-04-10T14:16:24.287Z,15.37
2024-04-10T14:18:54.431Z,15.38
2024-04-10T14:21:21.961Z,15.34
2024-04-10T14:23:52.116Z,15.42
2024-04-10T14:26:19.894Z,15.41
2024-04-10T14:28:50.235Z,15.34
2024-04-10T14:31:17.622Z,15.44
2024-04-10T14:33:48.749Z,15.42
2024-04-10T14:36:17.182Z,15.39
2024-04-10T14:38:47.806Z,15.41
2024-04-10T14:41:15.327Z,15.34
2024-04-10T14:43:46.379Z,15.38
2024-04-10T14:46:18.258Z,15.51
2024-04-10T14:48:50.595Z,15.42
2024-04-10T14:51:18.927Z,15.35
2024-04-10T14:53:49.111Z,15.28
2024-04-10T14:56:18.327Z,15.30
2024-04-10T14:58:49.428Z,15.33
2024-04-10T15:01:23.125Z,15.39
2024-04-10T15:03:55.795Z,15.36
2024-04-10T15:06:23.837Z,15.34
2024-04-10T15:08:54.992Z,15.29
2024-04-10T15:11:27.740Z,15.23
2024-04-10T15:13:59.161Z,15.18
2024-04-10T15:16:27.319Z,15.23
2024-04-10T15:19:02.039Z,15.25
2024-04-10T15:21:30.978Z,15.27
2024-04-10T15:24:01.261Z,15.31
2024-04-10T15:26:28.851Z,15.32
2024-04-10T15:28:58.912Z,15.29
2024-04-10T15:31:26.338Z,15.26
2024-04-10T15:33:56.896Z,15.22
2024-04-10T15:36:24.451Z,15.12
2024-04-10T15:38:55.705Z,14.94
2024-04-10T15:41:24.406Z,14.98
2024-04-10T15:43:54.739Z,14.89
2024-04-10T15:46:22.707Z,14.88
2024-04-10T15:48:53.544Z,14.92
2024-04-10T15:51:21.271Z,14.89
2024-04-10T15:53:51.296Z,14.83
2024-04-10T15:56:18.807Z,14.81
2024-04-10T15:58:48.722Z,14.79
2024-04-10T16:01:16.274Z,14.79
2024-04-10T16:03:48.351Z,14.75
2024-04-10T16:06:20.268Z,14.67
2024-04-10T16:08:51.091Z,14.68
2024-04-10T16:11:21.163Z,14.63
2024-04-10T16:13:52.311Z,14.62
2024-04-10T16:16:21.619Z,14.57
2024-04-10T16:18:53.375Z,14.50
2024-04-10T16:21:21.444Z,14.41
2024-04-10T16:23:54.095Z,14.31
2024-04-10T16:26:25.359Z,14.21
2024-04-10T16:28:55.695Z,14.10
2024-04-10T16:31:23.142Z,13.95
2024-04-10T16:33:54.965Z,13.88
2024-04-10T16:36:22.822Z,13.78
2024-04-10T16:38:53.120Z,13.72
2024-04-10T16:41:20.685Z,13.67
2024-04-10T16:43:51.523Z,13.61
2024-04-10T16:46:19.036Z,13.56
2024-04-10T16:48:49.929Z,13.52
2024-04-10T16:51:17.928Z,13.41
2024-04-10T16:53:49.033Z,13.42
2024-04-10T16:56:17.881Z,13.41
2024-04-10T16:58:48.882Z,13.36
2024-04-10T17:01:16.866Z,13.39
2024-04-10T17:03:47.238Z,13.43
2024-04-10T17:06:15.107Z,13.51
2024-04-10T17:08:45.282Z,13.62
2024-04-10T17:11:19.099Z,13.52
2024-04-10T17:13:49.632Z,13.55
2024-04-10T17:16:17.077Z,13.50
2024-04-10T17:19:03.221Z,13.35
2024-04-10T17:21:49.200Z,13.31
2024-04-10T17:24:20.078Z,13.23
2024-04-10T17:26:50.162Z,13.23
2024-04-10T17:29:22.940Z,13.14
2024-04-10T17:31:55.678Z,13.09
2024-04-10T17:34:24.201Z,13.04
2024-04-10T17:36:54.433Z,13.01
2024-04-10T17:39:27.127Z,12.99
2024-04-10T17:41:57.333Z,12.93
2024-04-10T17:44:24.954Z,12.92
2024-04-10T17:46:55.612Z,12.94
2024-04-10T17:49:25.911Z,12.86
2024-04-10T17:51:53.275Z,12.85
2024-04-10T17:54:23.306Z,12.81
2024-04-10T17:56:50.749Z,12.78
2024-04-10T17:59:20.781Z,12.71
2024-04-10T18:01:48.348Z,12.67
2024-04-10T18:04:18.506Z,12.63
2024-04-10T18:06:46.005Z,12.62
2024-04-10T18:09:15.987Z,12.56
2024-04-10T18:11:43.411Z,12.47
2024-04-10T18:14:13.627Z,12.38
2024-04-10T18:16:41.000Z,12.30
2024-04-10T18:19:11.124Z,12.27
2024-04-10T18:21:38.610Z,12.23
2024-04-10T18:24:08.777Z,12.20
2024-04-10T18:26:36.931Z,12.15
2024-04-10T18:29:09.192Z,12.10
2024-04-10T18:31:36.652Z,12.05
2024-04-10T18:34:06.731Z,11.99
2024-04-10T18:38:14.154Z,11.91
2024-04-10T18:40:41.551Z,11.83
2024-04-10T18:43:15.674Z,11.78
2024-04-10T18:45:57.165Z,11.72
2024-04-10T18:48:29.043Z,11.65
2024-04-10T18:50:56.886Z,11.61
2024-04-10T18:53:26.928Z,11.54
2024-04-10T18:56:02.590Z,11.47
2024-04-10T18:58:33.007Z,11.43
2024-04-10T19:01:04.544Z,11.38
2024-04-10T19:03:35.365Z,11.38
2024-04-10T19:06:12.814Z,11.38
2024-04-10T19:08:44.595Z,11.34
2024-04-10T19:11:13.455Z,11.31
2024-04-10T19:13:44.293Z,11.27
2024-04-10T19:16:11.667Z,11.21
2024-04-10T19:18:44.422Z,11.14
2024-04-10T19:21:12.873Z,11.08
2024-04-10T19:23:43.274Z,11.04
2024-04-10T19:26:12.903Z,10.95
2024-04-10T19:28:42.992Z,10.86
2024-04-10T19:31:10.427Z,10.85
2024-04-10T19:33:40.745Z,10.81
2024-04-10T19:36:11.000Z,10.79
2024-04-10T19:38:41.724Z,10.77
2024-04-10T19:41:11.584Z,10.74
2024-04-10T19:43:49.385Z,10.69
2024-04-10T19:46:16.962Z,10.69
2024-04-10T19:48:47.274Z,10.67
2024-04-10T19:51:14.758Z,10.64
2024-04-10T19:53:46.596Z,10.61
2024-04-10T19:56:14.094Z,10.61
2024-04-10T19:58:44.443Z,10.60
2024-04-10T20:01:12.940Z,10.58
2024-04-10T20:03:44.340Z,10.51
2024-04-10T20:06:12.854Z,10.44
2024-04-10T20:08:43.511Z,10.41
2024-04-10T20:11:11.586Z,10.40
2024-04-10T20:13:42.975Z,10.36
2024-04-10T20:16:11.506Z,10.29
2024-04-10T20:18:44.146Z,10.28
2024-04-10T20:21:14.254Z,10.29
2024-04-10T20:23:44.608Z,10.30
2024-04-10T20:26:12.199Z,10.27
2024-04-10T20:28:42.263Z,10.28
2024-04-10T20:31:12.759Z,10.26
2024-04-10T20:33:44.244Z,10.22
2024-04-10T20:36:12.530Z,10.18
2024-04-10T20:38:44.417Z,10.10
2024-04-10T20:41:12.735Z,10.08
2024-04-10T20:43:45.986Z,10.05
2024-04-10T20:46:13.663Z,10.01
2024-04-10T20:48:49.387Z,9.99
2024-04-10T20:51:18.873Z,9.94
2024-04-10T20:53:51.500Z,9.90
2024-04-10T20:56:21.436Z,9.93
2024-04-10T20:58:52.789Z,9.92
2024-04-10T21:01:20.766Z,9.88
2024-04-10T21:03:53.759Z,9.87
2024-04-10T21:06:21.257Z,9.79
2024-04-10T21:09:07.909Z,9.78
2024-04-10T21:11:56.001Z,9.74
2024-04-10T21:14:42.900Z,9.69
2024-04-10T21:17:29.007Z,9.67
2024-04-10T21:20:14.988Z,9.59
2024-04-10T21:23:00.780Z,9.57
2024-04-10T21:25:49.836Z,9.58
2024-04-10T21:28:36.389Z,9.55
2024-04-10T21:31:26.181Z,9.49
2024-04-10T21:34:12.500Z,9.43
2024-04-10T21:36:58.872Z,9.40
2024-04-10T21:39:45.476Z,9.38
2024-04-10T21:42:31.925Z,9.40
2024-04-10T21:45:17.993Z,9.35
2024-04-10T21:48:04.555Z,9.30
2024-04-10T21:50:50.961Z,9.28
2024-04-10T21:53:37.619Z,9.30
2024-04-10T21:56:24.958Z,9.28
2024-04-10T21:59:11.961Z,9.25
2024-04-10T22:04:47.697Z,9.15
2024-04-10T22:07:33.803Z,9.10
2024-04-10T22:10:00.942Z,9.08
2024-04-10T22:12:31.038Z,9.05
2024-04-10T22:15:01.297Z,9.06
2024-04-10T22:17:47.375Z,9.08
2024-04-10T22:20:33.363Z,9.05
2024-04-10T22:23:19.325Z,9.04
2024-04-10T22:25:56.283Z,9.03
2024-04-10T22:28:27.730Z,8.99
2024-04-10T22:30:57.778Z,8.97
2024-04-10T22:33:25.464Z,8.93
2024-04-10T22:36:02.273Z,8.93
2024-04-10T22:38:29.737Z,8.90
2024-04-10T22:40:59.803Z,8.88
2024-04-10T22:43:27.243Z,8.90
2024-04-10T22:45:57.341Z,8.88
2024-04-10T22:48:27.516Z,8.87
2024-04-10T22:50:56.683Z,8.83
2024-04-10T22:53:26.991Z,8.82
2024-04-10T22:55:54.521Z,8.81
2024-04-10T22:58:24.733Z,8.79
2024-04-10T23:00:51.922Z,8.75
2024-04-10T23:03:22.205Z,8.75
2024-04-10T23:05:56.019Z,8.75
2024-04-10T23:08:33.041Z,8.77
2024-04-10T23:11:02.348Z,8.74
2024-04-10T23:13:32.871Z,8.62
2024-04-10T23:16:00.589Z,8.62
2024-04-10T23:18:42.104Z,8.62
2024-04-10T23:21:17.890Z,8.57
2024-04-10T23:23:47.901Z,8.54
2024-04-10T23:26:15.297Z,8.52
2024-04-10T23:28:45.510Z,8.51
2024-04-10T23:31:12.972Z,8.52
2024-04-10T23:33:43.109Z,8.53
2024-04-10T23:36:10.669Z,8.53
2024-04-10T23:38:40.773Z,8.52
2024-04-10T23:41:08.175Z,8.49
2024-04-10T23:43:38.235Z,8.53
2024-04-10T23:46:06.841Z,8.48
2024-04-10T23:48:37.027Z,8.46
2024-04-10T23:51:04.808Z,8.40
2024-04-10T23:53:34.936Z,8.39
2024-04-10T23:56:02.707Z,8.39
2024-04-10T23:58:33.304Z,8.35
